Latest Weather Observations for Rockhampton

IDQ60801

Issued at 10:35 pm EST Thursday 2 October 2014 (issued every 30 minutes, with the page automatically refreshed every 10 minutes)

About weather observations | Map of weather stations | Latest weather observations for QLD | Other Formats
Station Details ID: 039083 Name: ROCKHAMPTON AERO Lat: -23.38 Lon: 150.48 Height: 10.4 m
Data from the previous 72 hours. | See also: Recent months at Rockhampton
Date/Time
EST
Temp
°C
App
Temp
°C
Dew
Point
Rel
Hum
%
Delta-T
°C
Wind Press
QNH
hPa
Press
MSL
hPa
Rain
since 9 am
mm
Dir
 
Spd
km/h
Gust
km/h
Spd
kts
Gust
kts
02/10:30pm 21.3 20.5 18.1 82 2.0 ESE 19 28 10 15 1019.6 - 0.0
02/10:00pm 21.2 20.4 18.0 82 2.0 ESE 19 26 10 14 1019.7 - 0.0
02/09:30pm 21.4 21.0 18.0 81 2.1 ESE 17 26 9 14 1019.8 - 0.0
02/09:00pm 21.5 21.2 18.3 82 2.0 ESE 17 24 9 13 1019.7 1019.6 0.0
02/08:30pm 22.0 22.3 18.0 78 2.5 E 13 19 7 10 1019.6 - 0.0
02/08:00pm 22.0 22.0 18.0 78 2.5 E 15 20 8 11 1019.2 - 0.0
02/07:30pm 21.9 22.2 18.0 78 2.4 E 13 19 7 10 1018.9 - 0.0
02/07:00pm 22.2 22.5 18.0 77 2.6 E 13 19 7 10 1018.5 - 0.0
02/06:30pm 22.0 22.3 17.8 77 2.6 E 13 19 7 10 1018.1 - 0.0
02/06:00pm 22.9 23.2 17.0 69 3.6 E 11 19 6 10 1017.7 1017.6 0.0
02/05:30pm 23.9 24.4 16.5 63 4.5 ENE 9 15 5 8 1017.1 - 0.0
02/05:00pm 24.7 24.4 16.4 60 5.1 E 13 20 7 11 1016.9 - 0.0
02/04:30pm 25.3 24.9 16.3 57 5.5 E 13 22 7 12 1016.8 - 0.0
02/04:00pm 26.0 25.2 16.0 54 6.1 ENE 15 19 8 10 1016.6 - 0.0
02/03:30pm 26.1 25.2 15.8 53 6.3 ENE 15 26 8 14 1016.5 - 0.0
02/03:00pm 26.1 24.7 15.6 52 6.4 ENE 17 26 9 14 1016.6 1016.5 0.0
02/02:30pm 26.5 25.8 16.4 53 6.2 E 15 22 8 12 1016.7 - 0.0
02/02:00pm 26.6 25.5 16.4 53 6.3 NE 17 28 9 15 1016.7 - 0.0
02/01:30pm 26.2 24.7 16.3 54 6.1 ENE 19 28 10 15 1017.1 - 0.0
02/01:00pm 26.3 25.4 16.8 56 5.9 E 17 28 9 15 1017.4 - 0.0
02/12:30pm 25.9 23.5 16.3 55 5.9 ESE 24 28 13 15 1017.7 - 0.0
02/12:00pm 25.4 24.2 16.2 56 5.6 ENE 17 26 9 14 1017.9 1017.8 0.0
02/11:30am 26.0 25.1 17.7 60 5.2 ENE 19 26 10 14 1018.3 - 0.0
02/11:00am 25.0 23.8 16.1 57 5.4 E 17 28 9 15 1018.6 - 0.0
02/10:30am 25.2 23.6 16.0 56 5.6 E 19 30 10 16 1018.8 - 0.0
02/10:00am 24.2 21.7 16.1 60 4.9 ESE 24 35 13 19 1018.9 - 0.0
02/09:30am 23.7 21.8 16.7 65 4.3 ESE 22 35 12 19 1019.2 - 0.0
02/09:00am 23.2 20.8 16.3 65 4.2 ESE 24 39 13 21 1019.2 1019.1 0.0
02/08:30am 22.4 20.7 16.3 68 3.7 SE 20 32 11 17 1019.2 - 0.0
02/08:00am 21.3 20.1 16.1 72 3.1 SE 17 24 9 13 1019.3 - 0.0
02/07:30am 20.6 20.3 15.4 72 3.1 ESE 11 13 6 7 1019.1 - 0.0
02/07:00am 19.1 18.3 15.0 77 2.4 E 13 20 7 11 1018.8 - 0.0
02/06:30am 17.5 16.9 14.7 83 1.6 SE 11 15 6 8 1018.6 - 0.0
02/06:00am 16.0 15.2 14.1 88 1.1 SE 11 17 6 9 1018.3 1018.2 0.0
02/05:30am 15.3 15.8 13.9 91 0.8 SSW 4 11 2 6 1017.4 - 0.0
02/05:00am 15.1 16.4 14.0 93 0.6 CALM 0 0 0 0 1016.5 - 0.0
02/04:30am 14.9 16.2 14.0 94 0.5 NNW 0 0 0 0 1016.1 - 0.0
02/04:00am 15.6 16.1 14.0 90 0.9 WSW 4 7 2 4 1016.0 - 0.0
02/03:30am 15.9 16.2 14.5 91 0.8 SSW 6 9 3 5 1015.8 - 0.0
02/03:00am 16.9 17.5 15.4 91 0.9 S 6 7 3 4 1015.7 1015.6 0.0
02/02:30am 17.0 18.2 13.8 81 1.8 CALM 0 0 0 0 1015.5 - 0.0
02/02:00am 16.5 17.0 14.0 85 1.4 ENE 4 7 2 4 1015.6 - 0.0
02/01:30am 16.4 16.8 14.8 90 0.9 NNW 6 6 3 3 1015.5 - 0.0
02/01:00am 16.7 17.2 15.0 90 1.0 NW 6 7 3 4 1015.7 - 0.0
02/12:30am 17.2 17.0 13.7 80 2.0 N 7 9 4 5 1015.7 - 0.0
02/12:00am 17.3 18.8 14.7 85 1.5 SSW 0 0 0 0 1015.8 1015.7 0.0
 
Date/Time
EST
Temp
°C
App
Temp
°C
Dew
Point
Rel
Hum
%
Delta-T
°C
Wind Press
QNH
hPa
Press
MSL
hPa
Rain
since 9 am
mm
Dir
 
Spd
km/h
Gust
km/h
Spd
kts
Gust
kts
01/11:30pm 17.8 18.3 14.9 83 1.7 SSW 6 7 3 4 1016.0 - 0.0
01/11:00pm 18.3 18.5 14.3 77 2.3 W 6 7 3 4 1015.9 - 0.0
01/10:30pm 18.6 18.3 14.3 76 2.5 N 9 11 5 6 1015.9 - 0.0
01/10:00pm 18.4 18.7 14.4 77 2.3 N 6 7 3 4 1015.8 - 0.0
01/09:30pm 19.1 20.6 14.6 75 2.6 CALM 0 0 0 0 1016.0 - 0.0
01/09:00pm 19.7 21.2 14.7 73 2.9 CALM 0 0 0 0 1016.1 1016.0 0.0
01/08:30pm 20.8 21.5 14.6 67 3.6 S 4 7 2 4 1016.1 - 0.0
01/08:00pm 21.6 22.2 14.2 62 4.3 ESE 4 7 2 4 1016.0 - 0.0
01/07:30pm 21.5 21.5 13.7 61 4.5 NNE 6 7 3 4 1015.7 - 0.0
01/07:00pm 22.4 22.9 14.0 59 4.9 N 4 6 2 3 1015.3 - 0.0
01/06:30pm 22.6 21.5 14.2 59 4.9 N 13 17 7 9 1014.9 - 0.0
01/06:00pm 24.1 22.1 13.9 53 6.0 N 17 20 9 11 1014.5 1014.4 0.0
01/05:30pm 25.8 23.2 13.8 47 7.1 N 20 28 11 15 1014.4 - 0.0
01/05:00pm 27.3 25.1 14.3 45 7.8 NNE 19 26 10 14 1014.3 - 0.0
01/04:30pm 29.5 27.3 10.8 31 10.7 N 13 19 7 10 1014.0 - 0.0
01/04:00pm 29.6 27.9 11.2 32 10.6 NNE 11 17 6 9 1014.2 - 0.0
01/03:30pm 29.3 28.3 12.2 34 10.0 NE 9 15 5 8 1014.4 - 0.0
01/03:00pm 29.4 28.2 11.6 33 10.3 NNW 9 15 5 8 1014.7 1014.6 0.0
01/02:30pm 28.9 28.2 12.0 35 9.8 SE 7 15 4 8 1015.1 - 0.0
01/02:00pm 28.4 26.8 11.5 35 9.7 S 11 19 6 10 1015.5 - 0.0
01/01:30pm 28.4 27.3 12.0 36 9.5 W 9 13 5 7 1016.0 - 0.0
01/01:00pm 27.6 26.8 11.8 37 9.1 SSE 7 11 4 6 1016.3 - 0.0
01/12:30pm 27.2 26.7 12.8 41 8.4 NNW 7 15 4 8 1016.9 - 0.0
01/12:00pm 26.2 25.5 11.9 41 8.2 SSE 7 11 4 6 1017.6 1017.5 0.0
01/11:30am 25.8 24.8 12.4 43 7.7 NW 9 13 5 7 1018.2 - 0.0
01/11:00am 25.1 24.6 12.6 45 7.2 N 7 15 4 8 1018.7 - 0.0
01/10:30am 24.8 23.8 12.4 46 7.1 NW 9 17 5 9 1019.1 - 0.0
01/10:00am 23.6 22.8 12.8 50 6.2 NNW 9 17 5 9 1019.4 - 0.0
01/09:30am 23.4 21.1 11.9 48 6.5 NNW 15 24 8 13 1019.6 - 0.0
01/09:00am 22.7 21.3 12.3 52 5.9 NNW 11 17 6 9 1019.9 1019.8 0.0
01/08:30am 21.4 21.3 13.8 62 4.4 NW 7 13 4 7 1019.9 - 0.0
01/08:00am 20.0 21.4 15.4 75 2.7 S 2 6 1 3 1020.0 - 0.0
01/07:30am 17.3 18.7 14.5 83 1.6 CALM 0 0 0 0 1020.0 - 0.0
01/07:00am 15.9 16.6 14.5 91 0.8 S 4 7 2 4 1019.8 - 0.0
01/06:30am 14.3 14.7 13.6 96 0.4 SW 4 7 2 4 1019.6 - 0.0
01/06:17am 14.1 15.2 13.4 96 0.4 CALM 0 0 0 0 1019.5 - 0.0
01/06:00am 13.6 14.6 13.1 97 0.3 CALM 0 - 0 - 1019.4 1019.3 0.0
01/05:49am 13.3 14.1 12.7 96 0.3 CALM 0 0 0 0 1019.3 - 0.0
01/05:30am 13.5 14.3 12.6 94 0.5 CALM 0 0 0 0 1019.3 - 0.0
01/05:00am 13.6 14.4 12.7 94 0.5 CALM 0 0 0 0 1019.1 - 0.0
01/04:30am 13.9 14.8 13.0 94 0.5 CALM 0 0 0 0 1018.8 - 0.0
01/04:00am 14.6 15.8 13.7 94 0.5 CALM 0 0 0 0 1018.6 - 0.0
01/03:30am 14.2 15.3 13.5 96 0.4 CALM 0 0 0 0 1018.6 - 0.0
01/03:00am 14.6 15.8 13.9 96 0.4 CALM 0 0 0 0 1018.6 1018.5 0.0
01/02:30am 14.7 16.0 14.0 96 0.4 CALM 0 0 0 0 1018.7 - 0.0
01/02:00am 15.0 16.3 14.1 94 0.5 CALM 0 0 0 0 1019.1 - 0.0
01/01:30am 15.0 16.3 14.1 94 0.5 CALM 0 0 0 0 1019.1 - 0.0
01/01:00am 15.4 16.8 14.3 93 0.6 CALM 0 0 0 0 1019.3 - 0.0
01/12:30am 15.6 16.9 14.2 91 0.8 CALM 0 0 0 0 1019.5 - 0.0
01/12:00am 15.9 17.3 14.5 91 0.8 CALM 0 0 0 0 1019.6 1019.5 0.0
 
Date/Time
EST
Temp
°C
App
Temp
°C
Dew
Point
Rel
Hum
%
Delta-T
°C
Wind Press
QNH
hPa
Press
MSL
hPa
Rain
since 9 am
mm
Dir
 
Spd
km/h
Gust
km/h
Spd
kts
Gust
kts
30/11:30pm 16.4 17.6 14.8 90 0.9 WNW 2 7 1 4 1019.8 - 0.0
30/11:00pm 17.0 18.0 14.4 85 1.5 W 2 6 1 3 1019.9 - 0.0
30/10:30pm 17.6 18.5 14.1 80 2.0 SW 2 6 1 3 1019.9 - 0.0
30/10:00pm 17.9 19.1 13.9 77 2.3 CALM 0 0 0 0 1019.9 - 0.0
30/09:30pm 18.7 19.5 13.8 73 2.8 S 2 7 1 4 1019.9 - 0.0
30/09:00pm 18.8 19.7 14.1 74 2.7 SSW 2 7 1 4 1019.8 1019.7 0.0
30/08:30pm 19.1 19.7 14.2 73 2.8 N 4 7 2 4 1019.6 - 0.0
30/08:00pm 19.5 19.5 14.1 71 3.1 NNE 7 11 4 6 1019.3 - 0.0
30/07:30pm 19.6 19.1 13.8 69 3.3 N 9 11 5 6 1018.9 - 0.0
30/07:00pm 20.9 19.9 13.4 62 4.3 N 11 13 6 7 1018.6 - 0.0
30/06:30pm 20.9 19.1 13.2 61 4.4 NNE 15 20 8 11 1018.1 - 0.0
30/06:00pm 22.8 20.5 10.6 46 6.7 E 13 20 7 11 1017.7 1017.6 0.0
30/05:30pm 23.8 21.7 11.3 45 7.0 ENE 13 20 7 11 1017.3 - 0.0
30/05:00pm 24.9 23.4 11.9 44 7.4 ENE 11 17 6 9 1017.1 - 0.0
30/04:30pm 25.8 23.9 11.8 41 8.0 ENE 13 19 7 10 1016.9 - 0.0
30/04:00pm 26.0 24.5 11.8 41 8.1 E 11 19 6 10 1016.7 - 0.0
30/03:30pm 26.1 23.9 10.8 38 8.6 ENE 13 20 7 11 1016.7 - 0.0
30/03:00pm 26.2 23.1 10.4 37 8.8 ESE 17 24 9 13 1016.9 1016.8 0.0
30/02:30pm 26.7 23.9 11.2 38 8.8 E 17 28 9 15 1017.1 - 0.0
30/02:00pm 27.1 24.5 12.0 39 8.7 ESE 17 26 9 14 1017.3 - 0.0
30/01:30pm 27.1 24.4 11.7 38 8.8 ESE 17 22 9 12 1017.8 - 0.0
30/01:00pm 27.0 26.1 11.4 37 8.9 ESE 7 15 4 8 1018.3 - 0.0
30/12:30pm 25.9 24.6 12.6 43 7.7 E 11 17 6 9 1018.7 - 0.0
30/12:00pm 27.0 26.1 13.6 43 7.9 NNW 11 20 6 11 1019.3 1019.2 0.0
30/11:30am 26.0 25.6 14.0 47 7.1 NE 9 20 5 11 1019.9 - 0.0
30/11:00am 25.0 24.8 13.7 49 6.6 N 7 11 4 6 1020.5 - 0.0
30/10:30am 24.4 24.3 13.8 51 6.2 NNE 7 13 4 7 1021.0 - 0.0
30/10:00am 23.8 23.6 14.7 56 5.4 NNE 9 15 5 8 1021.4 - 0.0
30/09:30am 23.4 23.9 15.0 59 5.0 E 6 11 3 6 1021.6 - 0.0
30/09:00am 22.2 22.8 15.3 65 4.1 S 6 13 3 7 1021.6 1021.5 0.0
30/08:30am 20.9 21.6 15.5 71 3.2 ESE 6 9 3 5 1021.5 - 0.0
30/08:00am 19.8 20.2 15.4 76 2.6 ESE 7 11 4 6 1021.3 - 0.0
30/07:30am 18.3 19.1 15.9 86 1.4 S 6 9 3 5 1021.0 - 0.0
30/07:00am 16.3 16.8 15.1 93 0.7 SSW 6 6 3 3 1020.8 - 0.0
30/06:55am 16.0 17.2 14.8 93 0.7 W 2 6 1 3 1020.8 - 0.0
30/06:30am 14.8 16.2 14.3 97 0.3 CALM 0 0 0 0 1020.5 - 0.0
30/06:00am 13.8 14.8 13.3 97 0.3 CALM 0 0 0 0 1020.3 1020.2 0.0
30/05:55am 13.9 15.0 13.4 97 0.3 CALM 0 0 0 0 1020.1 - 0.0
30/05:30am 14.0 15.1 13.5 97 0.3 CALM 0 0 0 0 1020.0 - 0.0
30/05:00am 14.3 15.4 13.4 94 0.5 CALM 0 0 0 0 1019.8 - 0.0
30/04:30am 14.6 15.7 13.5 93 0.6 CALM 0 0 0 0 1019.5 - 0.0
30/04:00am 14.4 15.6 13.7 96 0.4 CALM 0 0 0 0 1019.4 - 0.0
30/03:30am 14.5 15.6 13.6 94 0.5 CALM 0 0 0 0 1019.2 - 0.0
30/03:00am 14.7 16.0 14.0 96 0.4 CALM 0 2 0 1 1019.1 1019.0 0.0
30/02:30am 15.0 16.3 14.1 94 0.5 CALM 0 6 0 3 1019.2 - 0.0
30/02:00am 15.3 16.3 14.2 93 0.6 NNW 2 6 1 3 1019.2 - 0.0
30/01:30am 15.6 15.9 14.5 93 0.6 NW 6 7 3 4 1019.4 - 0.0
30/01:00am 16.2 17.7 14.6 90 0.9 CALM 0 0 0 0 1019.5 - 0.0
30/12:30am 16.8 18.3 14.7 87 1.2 CALM 0 6 0 3 1019.8 - 0.0
30/12:00am 16.8 18.0 14.9 88 1.1 ENE 2 6 1 3 1019.9 1019.8 0.0
 
Date/Time
EST
Temp
°C
App
Temp
°C
Dew
Point
Rel
Hum
%
Delta-T
°C
Wind Press
QNH
hPa
Press
MSL
hPa
Rain
since 9 am
mm
Dir
 
Spd
km/h
Gust
km/h
Spd
kts
Gust
kts
29/11:30pm 17.3 18.9 14.9 86 1.4 CALM 0 0 0 0 1020.1 - 0.0
29/11:00pm 17.7 18.9 14.8 83 1.7 ESE 2 6 1 3 1020.2 - 0.0

Other Formats:

Comma delimited format used in spreadsheet applications
http://www.bom.gov.au/fwo/IDQ60801/IDQ60801.94374.axf

JavaScript Object Notation format (JSON) in row-major order
http://www.bom.gov.au/fwo/IDQ60801/IDQ60801.94374.json